createdAt,value
2018-04-29T00:02:22.648Z,13.30
2018-04-29T00:04:51.747Z,13.23
2018-04-29T00:07:20.787Z,13.18
2018-04-29T00:09:49.044Z,13.12
2018-04-29T00:12:18.170Z,13.11
2018-04-29T00:14:46.450Z,13.09
2018-04-29T00:17:15.477Z,13.09
2018-04-29T00:19:44.505Z,13.06
2018-04-29T00:22:14.540Z,13.02
2018-04-29T00:24:43.397Z,12.97
2018-04-29T00:27:11.732Z,12.95
2018-04-29T00:29:40.002Z,12.87
2018-04-29T00:32:08.377Z,12.89
2018-04-29T00:34:36.639Z,12.80
2018-04-29T00:37:04.923Z,12.75
2018-04-29T00:39:33.175Z,12.71
2018-04-29T00:42:01.440Z,12.69
2018-04-29T00:44:29.716Z,12.64
2018-04-29T00:46:58.739Z,12.58
2018-04-29T00:49:26.996Z,12.61
2018-04-29T00:52:06.958Z,12.57
2018-04-29T00:54:36.047Z,12.59
2018-04-29T00:57:04.323Z,12.62
2018-04-29T00:59:32.682Z,12.63
2018-04-29T01:02:01.713Z,12.58
2018-04-29T01:04:30.068Z,12.56
2018-04-29T01:06:59.115Z,12.53
2018-04-29T01:09:27.490Z,12.46
2018-04-29T01:11:55.751Z,12.43
2018-04-29T01:14:24.986Z,12.38
2018-04-29T01:16:53.266Z,12.34
2018-04-29T01:19:22.378Z,12.28
2018-04-29T01:21:51.403Z,12.26
2018-04-29T01:24:19.681Z,12.18
2018-04-29T01:26:48.699Z,12.17
2018-04-29T01:29:17.080Z,12.13
2018-04-29T01:31:45.342Z,12.09
2018-04-29T01:34:13.588Z,12.08
2018-04-29T01:36:41.867Z,12.02
2018-04-29T01:39:10.169Z,11.98
2018-04-29T01:41:38.433Z,12.00
2018-04-29T01:44:06.823Z,11.97
2018-04-29T01:46:35.139Z,11.93
2018-04-29T01:49:03.496Z,11.91
2018-04-29T01:51:31.831Z,11.86
2018-04-29T01:54:00.094Z,11.88
2018-04-29T01:56:28.406Z,11.86
2018-04-29T01:58:56.747Z,11.87
2018-04-29T02:01:25.826Z,11.88
2018-04-29T02:03:54.117Z,11.92
2018-04-29T02:06:22.399Z,11.91
2018-04-29T02:08:50.706Z,11.91
2018-04-29T02:11:19.040Z,11.85
2018-04-29T02:13:48.068Z,11.79
2018-04-29T02:16:16.447Z,11.73
2018-04-29T02:18:44.704Z,11.73
2018-04-29T02:21:13.909Z,11.70
2018-04-29T02:23:43.671Z,11.69
2018-04-29T02:26:11.923Z,11.68
2018-04-29T02:28:41.051Z,11.72
2018-04-29T02:31:10.076Z,11.66
2018-04-29T02:33:38.367Z,11.73
2018-04-29T02:36:06.764Z,11.74
2018-04-29T02:38:35.014Z,11.69
2018-04-29T02:41:03.274Z,11.72
2018-04-29T02:43:31.715Z,11.70
2018-04-29T02:46:00.732Z,11.63
2018-04-29T02:48:29.792Z,11.64
2018-04-29T02:50:58.142Z,11.61
2018-04-29T02:53:26.430Z,11.62
2018-04-29T02:55:55.447Z,11.62
2018-04-29T02:58:23.836Z,11.65
2018-04-29T03:00:52.226Z,11.51
2018-04-29T03:03:20.482Z,11.47
2018-04-29T03:05:48.822Z,11.45
2018-04-29T03:08:17.079Z,11.40
2018-04-29T03:10:46.106Z,11.49
2018-04-29T03:13:14.430Z,11.44
2018-04-29T03:15:42.705Z,11.45
2018-04-29T03:18:11.080Z,11.39
2018-04-29T03:20:39.373Z,11.36
2018-04-29T03:23:07.664Z,11.35
2018-04-29T03:25:35.940Z,11.36
2018-04-29T03:28:04.227Z,11.31
2018-04-29T03:30:33.269Z,11.30
2018-04-29T03:33:01.642Z,11.37
2018-04-29T03:35:29.929Z,11.32
2018-04-29T03:37:58.208Z,11.35
2018-04-29T03:40:26.506Z,11.28
2018-04-29T03:42:55.609Z,11.24
2018-04-29T03:45:23.867Z,11.22
2018-04-29T03:47:52.145Z,11.26
2018-04-29T03:50:20.427Z,11.31
2018-04-29T03:52:48.711Z,11.31
2018-04-29T03:55:17.072Z,11.31
2018-04-29T03:58:03.869Z,11.25
2018-04-29T04:00:53.923Z,11.27
2018-04-29T04:03:39.847Z,11.27
2018-04-29T04:06:08.232Z,11.27
2018-04-29T04:08:36.587Z,11.29
2018-04-29T04:11:04.951Z,11.32
2018-04-29T04:13:33.266Z,11.34
2018-04-29T04:16:02.286Z,11.41
2018-04-29T04:18:30.568Z,11.41
2018-04-29T04:20:58.857Z,11.48
2018-04-29T04:23:27.971Z,11.52
2018-04-29T04:25:56.260Z,11.57
2018-04-29T04:28:24.588Z,11.65
2018-04-29T04:30:52.927Z,11.62
2018-04-29T04:33:22.054Z,11.65
2018-04-29T04:35:50.343Z,11.64
2018-04-29T04:38:18.621Z,11.71
2018-04-29T04:40:47.742Z,11.68
2018-04-29T04:43:16.559Z,11.73
2018-04-29T04:45:44.829Z,11.73
2018-04-29T04:48:13.100Z,11.79
2018-04-29T04:50:41.357Z,11.85
2018-04-29T04:53:09.706Z,11.90
2018-04-29T04:55:38.794Z,12.01
2018-04-29T04:58:07.968Z,12.07
2018-04-29T05:00:36.187Z,12.21
2018-04-29T05:03:05.246Z,12.33
2018-04-29T05:05:33.510Z,12.39
2018-04-29T05:08:01.805Z,12.37
2018-04-29T05:10:30.075Z,12.32
2018-04-29T05:12:59.213Z,12.37
2018-04-29T05:15:27.464Z,12.22
2018-04-29T05:17:56.507Z,12.22
2018-04-29T05:20:24.799Z,12.12
2018-04-29T05:22:53.186Z,12.26
2018-04-29T05:25:21.577Z,12.36
2018-04-29T05:27:49.837Z,12.35
2018-04-29T05:30:18.879Z,12.46
2018-04-29T05:32:47.167Z,12.42
2018-04-29T05:35:15.437Z,12.45
2018-04-29T05:37:44.477Z,12.48
2018-04-29T05:40:12.755Z,12.58
2018-04-29T05:42:41.044Z,12.59
2018-04-29T05:45:09.360Z,12.74
2018-04-29T05:47:37.636Z,12.78
2018-04-29T05:50:06.025Z,12.86
2018-04-29T05:52:34.305Z,12.88
2018-04-29T05:55:02.688Z,12.81
2018-04-29T05:57:31.710Z,12.90
2018-04-29T06:00:02.704Z,13.01
2018-04-29T06:02:30.971Z,13.12
2018-04-29T06:04:59.237Z,13.29
2018-04-29T06:07:28.275Z,13.64
2018-04-29T06:09:56.535Z,13.62
2018-04-29T06:12:25.552Z,13.64
2018-04-29T06:14:53.826Z,13.63
2018-04-29T06:17:22.843Z,13.63
2018-04-29T06:19:51.106Z,13.55
2018-04-29T06:22:19.514Z,13.50
2018-04-29T06:24:48.631Z,13.50
2018-04-29T06:27:17.732Z,13.38
2018-04-29T06:29:46.955Z,13.42
2018-04-29T06:32:15.978Z,13.55
2018-04-29T06:34:44.461Z,13.56
2018-04-29T06:37:12.855Z,13.74
2018-04-29T06:39:41.107Z,13.69
2018-04-29T06:42:09.433Z,13.68
2018-04-29T06:44:38.543Z,13.70
2018-04-29T06:47:06.858Z,13.65
2018-04-29T06:49:35.115Z,13.67
2018-04-29T06:52:03.391Z,13.66
2018-04-29T06:54:32.474Z,13.62
2018-04-29T06:57:01.488Z,13.56
2018-04-29T06:59:29.762Z,13.41
2018-04-29T07:01:58.112Z,13.23
2018-04-29T07:04:26.382Z,13.51
2018-04-29T07:06:55.512Z,13.49
2018-04-29T07:09:24.547Z,13.24
2018-04-29T07:11:52.807Z,13.13
2018-04-29T07:14:21.151Z,12.96
2018-04-29T07:16:50.927Z,12.85
2018-04-29T07:19:19.212Z,12.70
2018-04-29T07:21:47.485Z,12.63
2018-04-29T07:24:15.794Z,12.58
2018-04-29T07:26:44.902Z,12.62
2018-04-29T07:29:13.939Z,12.64
2018-04-29T07:31:42.295Z,12.75
2018-04-29T07:34:11.396Z,12.90
2018-04-29T07:36:39.809Z,13.07
2018-04-29T07:39:08.087Z,13.19
2018-04-29T07:41:36.362Z,13.39
2018-04-29T07:44:05.451Z,13.67
2018-04-29T07:46:33.739Z,14.21
2018-04-29T07:49:02.007Z,14.85
2018-04-29T07:51:30.284Z,15.19
2018-04-29T07:53:58.546Z,15.22
2018-04-29T07:56:27.563Z,15.06
2018-04-29T07:58:55.827Z,14.76
2018-04-29T08:01:24.843Z,14.61
2018-04-29T08:03:53.876Z,14.47
2018-04-29T08:06:22.166Z,14.33
2018-04-29T08:08:50.469Z,14.21
2018-04-29T08:11:19.557Z,14.57
2018-04-29T08:13:47.857Z,14.48
2018-04-29T08:16:16.129Z,14.88
2018-04-29T08:18:44.434Z,14.94
2018-04-29T08:21:12.704Z,15.10
2018-04-29T08:23:42.543Z,15.07
2018-04-29T08:26:10.841Z,15.21
2018-04-29T08:28:39.149Z,15.24
2018-04-29T08:31:07.520Z,15.20
2018-04-29T08:33:35.807Z,15.06
2018-04-29T08:36:04.843Z,14.87
2018-04-29T08:38:33.881Z,14.65
2018-04-29T08:41:03.652Z,14.43
2018-04-29T08:43:31.966Z,14.33
2018-04-29T08:46:00.247Z,14.16
2018-04-29T08:48:28.626Z,14.04
2018-04-29T08:50:56.939Z,13.86
2018-04-29T08:53:25.300Z,13.86
2018-04-29T08:55:54.357Z,13.94
2018-04-29T08:58:22.622Z,13.94
2018-04-29T09:00:50.892Z,14.16
2018-04-29T09:03:19.287Z,14.39
2018-04-29T09:05:47.656Z,14.48
2018-04-29T09:08:15.971Z,14.52
2018-04-29T09:10:44.262Z,14.73
2018-04-29T09:13:12.658Z,14.83
2018-04-29T09:15:40.949Z,15.01
2018-04-29T09:18:09.501Z,15.18
2018-04-29T09:20:38.041Z,15.29
2018-04-29T09:23:06.328Z,15.50
2018-04-29T09:25:34.728Z,15.72
2018-04-29T09:28:03.036Z,16.33
2018-04-29T09:30:31.440Z,17.26
2018-04-29T09:32:59.774Z,17.66
2018-04-29T09:35:28.809Z,18.34
2018-04-29T09:37:57.206Z,18.49
2018-04-29T09:40:25.454Z,18.70
2018-04-29T09:42:53.721Z,18.47
2018-04-29T09:45:21.977Z,18.05
2018-04-29T09:47:50.232Z,18.29
2018-04-29T09:50:19.270Z,17.97
2018-04-29T09:52:47.631Z,17.87
2018-04-29T09:55:16.684Z,18.03
2018-04-29T09:57:44.939Z,18.16
2018-04-29T10:00:14.059Z,17.98
2018-04-29T10:02:48.191Z,17.80
2018-04-29T10:05:16.465Z,18.50
2018-04-29T10:07:45.512Z,19.26
2018-04-29T10:10:13.800Z,19.26
2018-04-29T10:12:42.044Z,19.83
2018-04-29T10:15:11.175Z,20.04
2018-04-29T10:17:39.513Z,20.48
2018-04-29T10:20:07.762Z,20.78
2018-04-29T10:22:36.057Z,21.05
2018-04-29T10:25:04.330Z,21.18
2018-04-29T10:27:33.837Z,21.30
2018-04-29T10:30:02.857Z,21.28
2018-04-29T10:32:31.128Z,21.04
2018-04-29T10:35:00.260Z,20.73
2018-04-29T10:37:29.267Z,21.12
2018-04-29T10:39:57.582Z,20.84
2018-04-29T10:42:25.833Z,21.04
2018-04-29T10:44:54.138Z,20.91
2018-04-29T10:47:22.429Z,20.84
2018-04-29T10:49:51.542Z,20.56
2018-04-29T10:52:19.798Z,20.18
2018-04-29T10:54:49.580Z,20.50
2018-04-29T10:57:17.836Z,20.37
2018-04-29T10:59:46.111Z,20.60
2018-04-29T11:02:15.140Z,20.58
2018-04-29T11:04:43.420Z,19.91
2018-04-29T11:07:12.541Z,20.44
2018-04-29T11:09:41.640Z,20.65
2018-04-29T11:12:10.765Z,20.95
2018-04-29T11:14:39.136Z,21.28
2018-04-29T11:17:08.280Z,21.09
2018-04-29T11:19:36.545Z,21.02
2018-04-29T11:22:05.770Z,21.26
2018-04-29T11:24:33.967Z,21.49
2018-04-29T11:27:02.233Z,21.04
2018-04-29T11:29:31.243Z,21.17
2018-04-29T11:31:59.541Z,20.61
2018-04-29T11:34:28.635Z,20.63
2018-04-29T11:36:57.762Z,20.27
2018-04-29T11:39:26.961Z,20.42
2018-04-29T11:41:56.127Z,20.44
2018-04-29T11:44:24.410Z,20.59
2018-04-29T11:46:52.759Z,20.68
2018-04-29T11:49:21.770Z,20.82
2018-04-29T11:51:50.061Z,20.74
2018-04-29T11:54:19.079Z,20.58
2018-04-29T11:56:47.353Z,21.48
2018-04-29T11:59:16.448Z,21.96
2018-04-29T12:01:45.478Z,21.88
2018-04-29T12:04:13.785Z,21.04
2018-04-29T12:06:42.056Z,21.74
2018-04-29T12:09:11.091Z,22.26
2018-04-29T12:11:39.382Z,23.05
2018-04-29T12:14:07.716Z,23.25
2018-04-29T12:16:35.982Z,22.82
2018-04-29T12:19:04.233Z,23.25
2018-04-29T12:21:32.488Z,22.68
2018-04-29T12:24:01.607Z,23.26
2018-04-29T12:26:30.730Z,22.98
2018-04-29T12:28:59.731Z,23.37
2018-04-29T12:31:27.999Z,23.28
2018-04-29T12:33:57.023Z,22.48
2018-04-29T12:36:26.073Z,23.03
2018-04-29T12:38:54.361Z,23.32
2018-04-29T12:41:22.716Z,23.55
2018-04-29T12:43:51.840Z,23.76
2018-04-29T12:46:20.129Z,22.22
2018-04-29T12:48:49.156Z,22.12
2018-04-29T12:51:17.391Z,21.59
2018-04-29T12:53:45.723Z,21.67
2018-04-29T12:56:13.978Z,21.61
2018-04-29T12:58:42.230Z,22.26
2018-04-29T13:01:10.633Z,22.11
2018-04-29T13:03:38.921Z,22.22
2018-04-29T13:06:07.275Z,21.83
2018-04-29T13:08:35.658Z,22.54
2018-04-29T13:11:04.771Z,22.40
2018-04-29T13:13:33.793Z,22.72
2018-04-29T13:16:02.070Z,22.82
2018-04-29T13:18:31.278Z,23.11
2018-04-29T13:21:00.954Z,22.75
2018-04-29T13:23:29.252Z,22.47
2018-04-29T13:25:57.515Z,22.97
2018-04-29T13:28:25.798Z,23.36
2018-04-29T13:30:54.203Z,23.52
2018-04-29T13:33:22.457Z,23.53
2018-04-29T13:35:51.465Z,24.16
2018-04-29T13:38:20.498Z,24.24
2018-04-29T13:40:48.761Z,24.66
2018-04-29T13:43:17.012Z,24.42
2018-04-29T13:45:45.291Z,24.44
2018-04-29T13:48:13.663Z,24.10
2018-04-29T13:50:41.941Z,24.44
2018-04-29T13:53:11.061Z,24.56
2018-04-29T13:55:40.117Z,24.80
2018-04-29T13:58:08.396Z,24.95
2018-04-29T14:00:36.688Z,24.59
2018-04-29T14:03:04.959Z,24.39
2018-04-29T14:05:33.200Z,24.31
2018-04-29T14:08:02.250Z,24.67
2018-04-29T14:10:30.611Z,24.33
2018-04-29T14:12:58.880Z,24.33
2018-04-29T14:15:27.838Z,24.41
2018-04-29T14:17:56.121Z,23.77
2018-04-29T14:20:25.151Z,23.79
2018-04-29T14:22:53.507Z,23.74
2018-04-29T14:25:22.632Z,23.60
2018-04-29T14:27:50.871Z,23.62
2018-04-29T14:30:19.210Z,23.65
2018-04-29T14:32:48.257Z,23.99
2018-04-29T14:35:16.516Z,23.95
2018-04-29T14:37:44.787Z,23.36
2018-04-29T14:40:13.188Z,23.34
2018-04-29T14:42:42.327Z,23.63
2018-04-29T14:45:10.748Z,23.59
2018-04-29T14:47:40.612Z,23.40
2018-04-29T14:50:10.543Z,23.49
2018-04-29T14:52:38.859Z,23.57
2018-04-29T14:55:07.261Z,23.14
2018-04-29T14:57:35.727Z,23.39
2018-04-29T15:00:04.832Z,23.15
2018-04-29T15:02:33.859Z,22.87
2018-04-29T15:05:02.175Z,22.72
2018-04-29T15:07:30.546Z,22.95
2018-04-29T15:09:58.968Z,22.93
2018-04-29T15:12:27.264Z,22.86
2018-04-29T15:14:55.536Z,22.70
2018-04-29T15:17:23.878Z,22.66
2018-04-29T15:19:53.003Z,22.48
2018-04-29T15:22:22.113Z,22.42
2018-04-29T15:24:51.120Z,22.71
2018-04-29T15:27:20.159Z,22.68
2018-04-29T15:29:48.409Z,22.87
2018-04-29T15:32:17.547Z,22.64
2018-04-29T15:34:45.788Z,22.60
2018-04-29T15:37:14.067Z,22.49
2018-04-29T15:39:42.349Z,22.47
2018-04-29T15:42:10.738Z,22.15
2018-04-29T15:44:39.903Z,21.95
2018-04-29T15:47:08.298Z,21.95
2018-04-29T15:49:37.410Z,21.91
2018-04-29T15:52:05.677Z,21.82
2018-04-29T15:54:34.906Z,21.79
2018-04-29T15:57:03.899Z,21.71
2018-04-29T15:59:33.124Z,21.74
2018-04-29T16:02:02.242Z,21.69
2018-04-29T16:04:30.507Z,21.73
2018-04-29T16:06:59.558Z,21.77
2018-04-29T16:09:27.822Z,21.78
2018-04-29T16:11:56.067Z,21.77
2018-04-29T16:14:24.346Z,21.75
2018-04-29T16:16:53.885Z,21.79
2018-04-29T16:19:23.749Z,21.67
2018-04-29T16:21:52.020Z,21.73
2018-04-29T16:24:21.049Z,21.76
2018-04-29T16:26:49.299Z,21.63
2018-04-29T16:29:18.355Z,21.59
2018-04-29T16:31:47.448Z,21.72
2018-04-29T16:34:16.792Z,21.75
2018-04-29T16:36:45.075Z,21.85
2018-04-29T16:39:13.455Z,21.93
2018-04-29T16:41:42.695Z,21.92
2018-04-29T16:44:11.007Z,21.86
2018-04-29T16:46:40.011Z,21.56
2018-04-29T16:49:08.358Z,21.58
2018-04-29T16:51:36.752Z,21.63
2018-04-29T16:54:05.122Z,21.61
2018-04-29T16:56:34.264Z,21.63
2018-04-29T16:59:02.631Z,21.73
2018-04-29T17:01:33.466Z,21.80
2018-04-29T17:04:01.879Z,21.83
2018-04-29T17:06:30.991Z,21.90
2018-04-29T17:08:59.346Z,21.85
2018-04-29T17:11:27.732Z,21.77
2018-04-29T17:13:55.999Z,21.78
2018-04-29T17:16:24.451Z,21.78
2018-04-29T17:18:53.509Z,21.82
2018-04-29T17:21:21.955Z,21.65
2018-04-29T17:23:50.325Z,21.77
2018-04-29T17:26:20.835Z,21.79
2018-04-29T17:28:53.815Z,21.79
2018-04-29T17:31:23.012Z,21.86
2018-04-29T17:33:54.250Z,21.85
2018-04-29T17:36:23.308Z,21.81
2018-04-29T17:38:51.680Z,21.83
2018-04-29T17:41:20.079Z,21.89
2018-04-29T17:43:48.475Z,21.98
2018-04-29T17:46:16.967Z,22.10
2018-04-29T17:48:45.617Z,21.95
2018-04-29T17:51:13.987Z,21.97
2018-04-29T17:53:43.386Z,21.80
2018-04-29T17:56:11.869Z,21.85
2018-04-29T17:58:40.319Z,21.81
2018-04-29T18:01:08.677Z,21.66
2018-04-29T18:03:37.003Z,21.52
2018-04-29T18:06:05.425Z,21.43
2018-04-29T18:08:33.677Z,21.43
2018-04-29T18:11:01.945Z,21.48
2018-04-29T18:13:30.204Z,21.27
2018-04-29T18:15:58.484Z,21.41
2018-04-29T18:18:26.770Z,21.38
2018-04-29T18:20:55.883Z,21.41
2018-04-29T18:23:24.147Z,21.45
2018-04-29T18:25:53.284Z,21.28
2018-04-29T18:28:21.551Z,21.26
2018-04-29T18:30:50.580Z,21.15
2018-04-29T18:33:19.025Z,21.10
2018-04-29T18:35:47.268Z,21.14
2018-04-29T18:38:15.513Z,20.98
2018-04-29T18:40:43.783Z,20.97
2018-04-29T18:43:12.132Z,20.96
2018-04-29T18:45:41.549Z,21.04
2018-04-29T18:48:10.934Z,20.88
2018-04-29T18:50:41.834Z,20.76
2018-04-29T18:53:10.466Z,20.73
2018-04-29T18:55:39.468Z,20.67
2018-04-29T18:58:09.100Z,20.73
2018-04-29T19:00:37.555Z,20.56
2018-04-29T19:03:06.039Z,20.72
2018-04-29T19:05:59.251Z,20.61
2018-04-29T19:08:27.523Z,20.22
2018-04-29T19:10:56.702Z,19.89
2018-04-29T19:13:26.026Z,19.71
2018-04-29T19:15:55.104Z,19.57
2018-04-29T19:18:23.349Z,19.42
2018-04-29T19:20:51.609Z,19.37
2018-04-29T19:23:19.864Z,19.36
2018-04-29T19:25:48.260Z,19.35
2018-04-29T19:28:16.550Z,19.25
2018-04-29T19:30:44.873Z,19.19
2018-04-29T19:33:13.165Z,19.18
2018-04-29T19:35:49.494Z,19.10
2018-04-29T19:38:24.609Z,19.08
2018-04-29T19:40:54.014Z,19.02
2018-04-29T19:43:24.551Z,19.05
2018-04-29T19:45:54.219Z,19.05
2018-04-29T19:48:25.322Z,19.02
2018-04-29T19:50:53.632Z,19.03
2018-04-29T19:53:21.925Z,18.98
2018-04-29T19:55:52.905Z,18.93
2018-04-29T19:58:23.353Z,18.91
2018-04-29T20:00:53.779Z,18.93
2018-04-29T20:03:23.938Z,18.86
2018-04-29T20:05:54.159Z,18.84
2018-04-29T20:08:24.043Z,18.74
2018-04-29T20:10:53.221Z,18.74
2018-04-29T20:13:22.159Z,18.74
2018-04-29T20:15:51.196Z,18.76
2018-04-29T20:18:19.487Z,18.69
2018-04-29T20:20:49.564Z,18.67
2018-04-29T20:23:20.467Z,18.67
2018-04-29T20:25:48.965Z,18.67
2018-04-29T20:28:18.124Z,18.65
2018-04-29T20:30:47.157Z,18.65
2018-04-29T20:33:15.434Z,18.66
2018-04-29T20:35:44.468Z,18.65
2018-04-29T20:38:12.843Z,18.74
2018-04-29T20:40:41.247Z,18.74
2018-04-29T20:43:10.371Z,18.70
2018-04-29T20:45:38.958Z,18.68
2018-04-29T20:48:07.975Z,18.70
2018-04-29T20:50:36.929Z,18.67
2018-04-29T20:53:06.386Z,18.69
2018-04-29T20:55:34.642Z,18.65
2018-04-29T20:58:04.408Z,18.65
2018-04-29T21:00:32.769Z,18.61
2018-04-29T21:03:01.081Z,18.60
2018-04-29T21:05:30.237Z,18.62
2018-04-29T21:07:59.315Z,18.55
2018-04-29T21:10:27.616Z,18.52
2018-04-29T21:12:55.861Z,18.50
2018-04-29T21:15:24.954Z,18.45
2018-04-29T21:17:53.503Z,18.53
2018-04-29T21:20:21.834Z,18.50
2018-04-29T21:22:50.185Z,18.47
2018-04-29T21:25:18.441Z,18.47
2018-04-29T21:27:47.469Z,18.42
2018-04-29T21:30:15.773Z,18.39
2018-04-29T21:32:44.029Z,18.35
2018-04-29T21:35:13.174Z,18.39
2018-04-29T21:37:41.476Z,18.40
2018-04-29T21:40:09.817Z,18.39
2018-04-29T21:42:38.943Z,18.35
2018-04-29T21:45:07.250Z,18.31
2018-04-29T21:47:35.522Z,18.34
2018-04-29T21:50:04.633Z,18.33
2018-04-29T21:52:33.964Z,18.28
2018-04-29T21:55:02.332Z,18.28
2018-04-29T21:57:31.438Z,18.29
2018-04-29T22:00:00.470Z,18.27
2018-04-29T22:02:28.955Z,18.27
2018-04-29T22:04:58.012Z,18.27
2018-04-29T22:07:26.458Z,18.28
2018-04-29T22:09:54.703Z,18.23
2018-04-29T22:12:22.983Z,18.21
2018-04-29T22:14:51.372Z,18.14
2018-04-29T22:17:19.799Z,18.07
2018-04-29T22:19:48.187Z,17.67
2018-04-29T22:22:17.323Z,17.52
2018-04-29T22:24:46.340Z,17.26
2018-04-29T22:27:14.621Z,17.13
2018-04-29T22:29:42.879Z,17.07
2018-04-29T22:32:11.962Z,16.98
2018-04-29T22:34:40.243Z,16.94
2018-04-29T22:37:09.919Z,16.77
2018-04-29T22:39:38.120Z,16.64
2018-04-29T22:42:06.376Z,16.57
2018-04-29T22:44:34.665Z,16.45
2018-04-29T22:47:02.980Z,16.23
2018-04-29T22:49:31.244Z,16.00
2018-04-29T22:51:59.534Z,15.85
2018-04-29T22:54:27.861Z,15.72
2018-04-29T22:56:56.875Z,15.64
2018-04-29T22:59:25.164Z,15.55
2018-04-29T23:01:53.427Z,15.43
2018-04-29T23:04:22.462Z,15.39
2018-04-29T23:06:50.781Z,15.32
2018-04-29T23:09:19.051Z,15.30
2018-04-29T23:11:47.340Z,15.26
2018-04-29T23:14:15.725Z,15.21
2018-04-29T23:16:44.001Z,15.16
2018-04-29T23:19:13.015Z,15.06
2018-04-29T23:21:42.289Z,14.97
2018-04-29T23:24:10.545Z,14.97
2018-04-29T23:26:38.815Z,14.94
2018-04-29T23:29:07.084Z,14.92
2018-04-29T23:31:35.344Z,14.89
2018-04-29T23:34:03.607Z,14.80
2018-04-29T23:36:31.914Z,14.79
2018-04-29T23:39:00.195Z,14.64
2018-04-29T23:41:28.439Z,14.56
2018-04-29T23:43:57.915Z,14.42
2018-04-29T23:46:26.187Z,14.45
2018-04-29T23:48:54.451Z,14.39
2018-04-29T23:51:22.731Z,14.43
2018-04-29T23:53:51.747Z,14.40
2018-04-29T23:56:20.007Z,14.35
2018-04-29T23:58:49.065Z,14.38
